Flight Track Log - Related Links

Times and Time Zones

All times are in EDT time to prevent confusion due to time zone crossing. See the SKQ45 flight status page for this flight to view local times or setup timezone preferences in your user account.

Time Position Orientation Groundspeed Altitude Reporting Facility
EDT Latitude Longitude Course Direction KTS MPH feet Rate Location/Type
Sat 01:29:27 AM 40.0331 -83.0681 148° Southeast 155 178 3,800  Level Indianapolis Center
Sat 01:29:49 AM 40.0153 -83.0614 164° South 146 168 4,700 1,869 Climbing Indianapolis Center
Sat 01:30:28 AM 39.9922 -83.0469 154° Southeast 155 178 5,700 1,818 Climbing Indianapolis Center
Sat 01:31:28 AM 39.9500 -83.0119 148° Southeast 171 197 7,700 1,950 Climbing Indianapolis Center
Sat 01:32:28 AM 39.9094 -82.9700 142° Southeast 184 212 9,600 1,785 Climbing Indianapolis Center
Sat 01:33:29 AM 39.8669 -82.9292 144° Southeast 188 216 11,300 1,736 Climbing Indianapolis Center
Sat 01:34:29 AM 39.8244 -82.8869 143° Southeast 189 217 13,100 1,650 Climbing Indianapolis Center
Sat 01:35:29 AM 39.7819 -82.8461 144° Southeast 188 216 14,600 1,736 Climbing Indianapolis Center
Sat 01:36:30 AM 39.7367 -82.8039 144° Southeast 198 228 16,600 1,785 Climbing Indianapolis Center
Sat 01:37:30 AM 39.6961 -82.7644 143° Southeast 184 212 18,200 1,190 Climbing Indianapolis Center
Sat 01:38:31 AM 39.6544 -82.7253 144° Southeast 182 209 19,000 347 Climbing Indianapolis Center
Sat 01:39:31 AM 39.6008 -82.6753 144° Southeast 222 255 18,900  Descending Indianapolis Center
Sat 01:40:31 AM 39.5453 -82.6211 143° Southeast 242 278 19,000 50 Climbing Indianapolis Center
Sat 01:41:31 AM 39.4903 -82.5681 143° Southeast 244 281 19,000  Level Indianapolis Center
Sat 01:42:32 AM 39.4347 -82.5153 144° Southeast 244 281 19,000  Level Indianapolis Center
Sat 01:43:32 AM 39.3814 -82.4631 143° Southeast 243 280 19,000  Level Indianapolis Center
Sat 01:44:32 AM 39.3267 -82.4117 144° Southeast 242 278 19,000  Level Indianapolis Center
Sat 01:45:33 AM 39.2731 -82.3606 144° Southeast 241 277 19,000  Level Indianapolis Center
Sat 01:46:33 AM 39.2183 -82.3086 144° Southeast 242 278 19,000  Level Indianapolis Center
Sat 01:47:33 AM 39.1642 -82.2581 144° Southeast 242 278 19,000  Level Indianapolis Center
Sat 01:48:34 AM 39.1100 -82.2069 144° Southeast 242 278 19,000  Level Indianapolis Center
Sat 01:49:34 AM 39.0558 -82.1558 144° Southeast 242 278 19,000  Level Indianapolis Center
Sat 01:50:34 AM 39.0017 -82.1061 144° Southeast 240 276 19,000  Level Indianapolis Center
Sat 01:51:34 AM 38.9478 -82.0542 143° Southeast 242 278 19,000  Level Indianapolis Center
Sat 01:52:35 AM 38.8922 -82.0025 144° Southeast 245 282 19,000  Level Indianapolis Center
Sat 01:53:35 AM 38.8378 -81.9522 144° Southeast 243 280 19,000  Level Indianapolis Center
Sat 01:54:35 AM 38.7831 -81.9003 143° Southeast 244 281 19,000  Level Indianapolis Center
Sat 01:55:35 AM 38.7281 -81.8500 145° Southeast 244 281 19,000  Level Indianapolis Center
Sat 01:56:36 AM 38.6736 -81.7983 143° Southeast 245 282 19,000  Level Indianapolis Center
Sat 01:57:36 AM 38.6189 -81.7492 145° Southeast 243 280 19,000  Level Indianapolis Center
Sat 01:58:36 AM 38.5639 -81.6989 144° Southeast 245 282 19,000  Level Indianapolis Center
Sat 01:59:36 AM 38.5092 -81.6481 144° Southeast 246 283 19,000  Level Indianapolis Center
Sat 02:00:37 AM 38.4542 -81.5961 144° Southeast 247 284 19,000  Level Indianapolis Center
Sat 02:01:37 AM 38.3972 -81.5458 145° Southeast 247 284 19,000  Level Indianapolis Center
Sat 02:02:37 AM 38.3417 -81.4942 144° Southeast 248 285 19,000  Level Indianapolis Center
Sat 02:03:37 AM 38.2850 -81.4425 144° Southeast 249 287 19,000  Level Indianapolis Center
Sat 02:04:37 AM 38.2289 -81.3919 145° Southeast 248 285 19,000  Level Indianapolis Center
Sat 02:05:38 AM 38.1725 -81.3411 145° Southeast 249 287 19,000  Level Indianapolis Center
Sat 02:06:38 AM 38.1164 -81.2894 144° Southeast 250 288 19,000  Level Indianapolis Center
Sat 02:07:38 AM 38.0592 -81.2375 144° Southeast 252 290 19,000  Level Indianapolis Center
Sat 02:08:38 AM 38.0017 -81.1858 145° Southeast 254 292 19,000  Level Indianapolis Center
Sat 02:09:38 AM 37.9444 -81.1350 145° Southeast 251 289 19,000  Level Indianapolis Center
Sat 02:10:39 AM 37.8867 -81.0817 144° Southeast 255 293 19,000  Level Indianapolis Center
Sat 02:11:15 AM 37.8486 -81.0542 150° Southeast 265 305 19,000  Level Washington Center
Sat 02:12:15 AM 37.7844 -80.9944 144° Southeast 259 298 19,000  Level Washington Center
Sat 02:13:15 AM 37.7331 -80.9303 135° Southeast 259 298 19,000  Level Washington Center
Sat 02:14:15 AM 37.6819 -80.8636 134° Southeast 259 298 19,000  Level Washington Center
Sat 02:15:15 AM 37.6281 -80.8050 139° Southeast 259 298 19,000  Level Washington Center
Sat 02:16:15 AM 37.5756 -80.7647 149° Southeast 248 285 19,000  Level Washington Center
Sat 02:17:15 AM 37.5172 -80.7161 147° Southeast 248 285 19,000  Level Washington Center
Sat 02:18:15 AM 37.4608 -80.6678 146° Southeast 248 285 19,000  Level Washington Center
Sat 02:19:15 AM 37.4047 -80.6169 144° Southeast 248 285 19,000  Level Washington Center
Sat 02:20:15 AM 37.3422 -80.5633 146° Southeast 248 285 19,000  Level Washington Center
Sat 02:21:15 AM 37.2836 -80.5150 147° Southeast 248 285 19,000  Level Washington Center
Sat 02:22:15 AM 37.2292 -80.4697 146° Southeast 248 285 19,000  Level Washington Center
Sat 02:23:15 AM 37.1728 -80.4192 144° Southeast 248 285 19,000  Level Washington Center
Sat 02:24:15 AM 37.1225 -80.3769 146° Southeast 248 285 19,000 -200 Level Washington Center
Sat 02:25:15 AM 37.0658 -80.3292 146° Southeast 248 285 18,600 -650 Descending Washington Center
Sat 02:26:15 AM 37.0053 -80.2786 146° Southeast 248 285 17,700 -850 Descending Washington Center
Sat 02:27:15 AM 36.9428 -80.2256 146° Southeast 253 291 16,900 -800 Descending Washington Center
Sat 02:29:00 AM 36.8478 -80.1488 147° Southeast  Level FlightAware Approximate
Sat 02:36:00 AM 36.4749 -79.8307 144° Southeast  Level FlightAware Approximate
Sat 02:37:00 AM 36.4226 -79.7836 144° Southeast  Level FlightAware Approximate
Sat 02:38:00 AM 36.3702 -79.7365 144° Southeast  Level FlightAware Approximate
Sat 02:39:00 AM 36.3151 -79.6946 149° Southeast  Level FlightAware Approximate
Sat 02:40:00 AM 36.2598 -79.6532 149° Southeast  Level FlightAware Approximate
Sat 02:41:00 AM 36.2062 -79.6088 149° Southeast  Level FlightAware Approximate
Sat 02:42:00 AM 36.1509 -79.5673 149° Southeast  Level FlightAware Approximate
Sat 02:43:00 AM 36.1005 -79.5172 141° Southeast  Level FlightAware Approximate

Login

Don't have an account? Register now (free) for customized features, flight alerts, and more!